sensor_id;sensor_type;location;lat;lon;timestamp;pressure;altitude;pressure_sealevel;temperature;humidity
29197;BME280;62796;42.654;23.316;2023-09-07T00:00:31;95072.66;;;22.20;51.23
29197;BME280;62796;42.654;23.316;2023-09-07T00:02:56;95076.03;;;22.18;51.47
29197;BME280;62796;42.654;23.316;2023-09-07T00:05:22;95074.13;;;22.13;51.65
29197;BME280;62796;42.654;23.316;2023-09-07T00:07:47;95068.03;;;22.09;51.91
29197;BME280;62796;42.654;23.316;2023-09-07T00:10:12;95062.06;;;22.13;51.79
29197;BME280;62796;42.654;23.316;2023-09-07T00:12:39;95049.94;;;22.04;52.03
29197;BME280;62796;42.654;23.316;2023-09-07T00:15:05;95068.03;;;22.09;52.31
29197;BME280;62796;42.654;23.316;2023-09-07T00:17:31;95065.84;;;22.15;52.26
29197;BME280;62796;42.654;23.316;2023-09-07T00:19:57;95065.44;;;22.11;52.35
29197;BME280;62796;42.654;23.316;2023-09-07T00:22:23;95066.13;;;22.04;52.73
29197;BME280;62796;42.654;23.316;2023-09-07T00:24:50;95069.47;;;22.02;52.71
29197;BME280;62796;42.654;23.316;2023-09-07T00:27:16;95069.78;;;22.12;52.62
29197;BME280;62796;42.654;23.316;2023-09-07T00:29:41;95077.47;;;22.32;51.91
29197;BME280;62796;42.654;23.316;2023-09-07T00:32:07;95064.75;;;22.18;52.39
29197;BME280;62796;42.654;23.316;2023-09-07T00:34:32;95068.50;;;22.00;53.10
29197;BME280;62796;42.654;23.316;2023-09-07T00:36:58;95066.78;;;21.97;53.30
29197;BME280;62796;42.654;23.316;2023-09-07T00:39:23;95066.38;;;21.93;53.57
29197;BME280;62796;42.654;23.316;2023-09-07T00:41:49;95064.72;;;21.97;53.93
29197;BME280;62796;42.654;23.316;2023-09-07T00:44:14;95060.53;;;21.91;54.10
29197;BME280;62796;42.654;23.316;2023-09-07T00:46:40;95064.88;;;21.92;54.12
29197;BME280;62796;42.654;23.316;2023-09-07T00:49:06;95057.69;;;21.91;53.97
29197;BME280;62796;42.654;23.316;2023-09-07T00:51:32;95057.03;;;21.85;54.22
29197;BME280;62796;42.654;23.316;2023-09-07T00:53:58;95065.31;;;21.83;54.26
29197;BME280;62796;42.654;23.316;2023-09-07T00:56:25;95060.53;;;21.78;54.64
29197;BME280;62796;42.654;23.316;2023-09-07T00:58:52;95052.97;;;21.73;54.74
29197;BME280;62796;42.654;23.316;2023-09-07T01:01:20;95062.06;;;21.79;54.52
29197;BME280;62796;42.654;23.316;2023-09-07T01:03:45;95052.94;;;21.86;54.40
29197;BME280;62796;42.654;23.316;2023-09-07T01:06:26;95049.66;;;21.95;54.17
29197;BME280;62796;42.654;23.316;2023-09-07T01:08:55;95063.56;;;21.80;54.85
29197;BME280;62796;42.654;23.316;2023-09-07T01:11:22;95051.69;;;21.61;55.57
29197;BME280;62796;42.654;23.316;2023-09-07T01:13:49;95058.84;;;21.62;55.78
29197;BME280;62796;42.654;23.316;2023-09-07T01:16:14;95051.91;;;21.63;55.83
29197;BME280;62796;42.654;23.316;2023-09-07T01:18:40;95043.88;;;21.67;55.39
29197;BME280;62796;42.654;23.316;2023-09-07T01:21:07;95056.88;;;21.70;55.03
29197;BME280;62796;42.654;23.316;2023-09-07T01:23:35;95043.66;;;21.65;55.27
29197;BME280;62796;42.654;23.316;2023-09-07T01:26:02;95055.56;;;21.71;54.96
29197;BME280;62796;42.654;23.316;2023-09-07T01:28:28;95046.88;;;21.69;55.10
29197;BME280;62796;42.654;23.316;2023-09-07T01:30:53;95045.94;;;21.66;54.88
29197;BME280;62796;42.654;23.316;2023-09-07T01:33:19;95048.41;;;21.70;54.43
29197;BME280;62796;42.654;23.316;2023-09-07T01:35:45;95047.25;;;21.65;54.59
29197;BME280;62796;42.654;23.316;2023-09-07T01:38:10;95056.44;;;21.66;54.73
29197;BME280;62796;42.654;23.316;2023-09-07T01:40:35;95054.31;;;21.92;53.68
29197;BME280;62796;42.654;23.316;2023-09-07T01:43:01;95058.97;;;22.03;53.42
29197;BME280;62796;42.654;23.316;2023-09-07T01:45:26;95044.72;;;21.75;54.23
29197;BME280;62796;42.654;23.316;2023-09-07T01:47:52;95053.22;;;21.62;54.79
29197;BME280;62796;42.654;23.316;2023-09-07T01:50:17;95046.50;;;21.65;54.60
29197;BME280;62796;42.654;23.316;2023-09-07T01:52:46;95056.66;;;21.68;54.48
29197;BME280;62796;42.654;23.316;2023-09-07T01:55:13;95052.31;;;21.67;54.63
29197;BME280;62796;42.654;23.316;2023-09-07T01:57:38;95057.00;;;21.64;54.72
29197;BME280;62796;42.654;23.316;2023-09-07T02:00:04;95063.16;;;21.63;54.91
29197;BME280;62796;42.654;23.316;2023-09-07T02:02:30;95045.41;;;21.55;54.60
29197;BME280;62796;42.654;23.316;2023-09-07T02:04:56;95053.97;;;21.62;54.87
29197;BME280;62796;42.654;23.316;2023-09-07T02:07:21;95053.97;;;21.62;54.86
29197;BME280;62796;42.654;23.316;2023-09-07T02:09:47;95049.50;;;21.67;54.70
29197;BME280;62796;42.654;23.316;2023-09-07T02:12:12;95047.03;;;21.63;54.67
29197;BME280;62796;42.654;23.316;2023-09-07T02:14:37;95044.31;;;21.71;54.49
29197;BME280;62796;42.654;23.316;2023-09-07T02:17:03;95057.69;;;21.91;53.94
29197;BME280;62796;42.654;23.316;2023-09-07T02:19:29;95063.66;;;21.87;53.91
29197;BME280;62796;42.654;23.316;2023-09-07T02:21:54;95053.84;;;21.68;54.89
29197;BME280;62796;42.654;23.316;2023-09-07T02:24:19;95050.16;;;21.60;55.02
29197;BME280;62796;42.654;23.316;2023-09-07T02:26:45;95054.50;;;21.61;55.09
29197;BME280;62796;42.654;23.316;2023-09-07T02:29:13;95056.25;;;21.64;55.06
29197;BME280;62796;42.654;23.316;2023-09-07T02:31:42;95064.56;;;21.69;54.93
29197;BME280;62796;42.654;23.316;2023-09-07T02:34:07;95051.69;;;21.61;55.26
29197;BME280;62796;42.654;23.316;2023-09-07T02:36:34;95060.16;;;21.61;55.10
29197;BME280;62796;42.654;23.316;2023-09-07T02:39:02;95053.88;;;21.55;55.19
29197;BME280;62796;42.654;23.316;2023-09-07T02:41:28;95060.28;;;21.55;55.51
29197;BME280;62796;42.654;23.316;2023-09-07T02:43:54;95067.97;;;21.55;55.56
29197;BME280;62796;42.654;23.316;2023-09-07T02:46:19;95062.75;;;21.59;55.62
29197;BME280;62796;42.654;23.316;2023-09-07T02:48:45;95069.03;;;21.65;55.07
29197;BME280;62796;42.654;23.316;2023-09-07T02:51:10;95069.22;;;21.80;54.84
29197;BME280;62796;42.654;23.316;2023-09-07T02:53:35;95067.03;;;21.86;54.60
29197;BME280;62796;42.654;23.316;2023-09-07T02:56:01;95067.50;;;21.64;54.79
29197;BME280;62796;42.654;23.316;2023-09-07T02:58:29;95061.63;;;21.41;55.67
29197;BME280;62796;42.654;23.316;2023-09-07T03:00:56;95070.59;;;21.39;55.90
29197;BME280;62796;42.654;23.316;2023-09-07T03:03:21;95069.94;;;21.46;56.00
29197;BME280;62796;42.654;23.316;2023-09-07T03:05:47;95068.09;;;21.49;55.85
29197;BME280;62796;42.654;23.316;2023-09-07T03:08:12;95079.38;;;21.49;55.90
29197;BME280;62796;42.654;23.316;2023-09-07T03:10:38;95067.56;;;21.37;56.14
29197;BME280;62796;42.654;23.316;2023-09-07T03:13:05;95058.91;;;21.35;56.19
29197;BME280;62796;42.654;23.316;2023-09-07T03:15:31;95064.84;;;21.45;56.13
29197;BME280;62796;42.654;23.316;2023-09-07T03:17:57;95067.97;;;21.41;56.58
29197;BME280;62796;42.654;23.316;2023-09-07T03:20:22;95063.34;;;21.31;56.92
29197;BME280;62796;42.654;23.316;2023-09-07T03:22:48;95060.66;;;21.25;56.96
29197;BME280;62796;42.654;23.316;2023-09-07T03:25:13;95059.78;;;21.30;57.12
29197;BME280;62796;42.654;23.316;2023-09-07T03:27:39;95072.97;;;21.48;56.63
29197;BME280;62796;42.654;23.316;2023-09-07T03:30:05;95066.38;;;21.46;56.65
29197;BME280;62796;42.654;23.316;2023-09-07T03:32:32;95060.22;;;21.21;57.53
29197;BME280;62796;42.654;23.316;2023-09-07T03:35:02;95080.38;;;21.12;58.04
29197;BME280;62796;42.654;23.316;2023-09-07T03:37:28;95068.25;;;21.17;58.00
29197;BME280;62796;42.654;23.316;2023-09-07T03:39:57;95066.41;;;21.20;57.90
29197;BME280;62796;42.654;23.316;2023-09-07T03:42:23;95048.09;;;21.13;57.82
29197;BME280;62796;42.654;23.316;2023-09-07T03:44:48;95072.56;;;21.18;58.07
29197;BME280;62796;42.654;23.316;2023-09-07T03:47:14;95066.53;;;21.14;58.35
29197;BME280;62796;42.654;23.316;2023-09-07T03:49:40;95071.47;;;21.21;58.09
29197;BME280;62796;42.654;23.316;2023-09-07T03:52:06;95087.22;;;21.17;58.47
29197;BME280;62796;42.654;23.316;2023-09-07T03:54:32;95084.59;;;21.19;58.46
29197;BME280;62796;42.654;23.316;2023-09-07T03:56:57;95092.72;;;21.22;58.42
29197;BME280;62796;42.654;23.316;2023-09-07T03:59:23;95089.06;;;21.14;58.94
29197;BME280;62796;42.654;23.316;2023-09-07T04:01:48;95100.31;;;21.14;59.14
29197;BME280;62796;42.654;23.316;2023-09-07T04:04:14;95097.72;;;21.29;58.59
29197;BME280;62796;42.654;23.316;2023-09-07T04:06:40;95094.25;;;21.23;58.22
29197;BME280;62796;42.654;23.316;2023-09-07T04:09:05;95096.50;;;20.98;59.05
29197;BME280;62796;42.654;23.316;2023-09-07T04:11:31;95107.41;;;20.89;59.63
29197;BME280;62796;42.654;23.316;2023-09-07T04:13:56;95095.28;;;20.81;59.35
29197;BME280;62796;42.654;23.316;2023-09-07T04:16:22;95094.31;;;20.91;59.39
29197;BME280;62796;42.654;23.316;2023-09-07T04:18:47;95100.59;;;20.97;59.21
29197;BME280;62796;42.654;23.316;2023-09-07T04:21:12;95092.47;;;20.94;59.36
29197;BME280;62796;42.654;23.316;2023-09-07T04:23:38;95093.66;;;20.98;59.47
29197;BME280;62796;42.654;23.316;2023-09-07T04:26:11;95099.63;;;20.95;59.81
29197;BME280;62796;42.654;23.316;2023-09-07T04:28:38;95098.09;;;20.94;60.18
29197;BME280;62796;42.654;23.316;2023-09-07T04:31:05;95095.06;;;20.92;60.25
29197;BME280;62796;42.654;23.316;2023-09-07T04:33:31;95101.25;;;20.90;60.02
29197;BME280;62796;42.654;23.316;2023-09-07T04:36:06;95090.72;;;20.91;59.60
29197;BME280;62796;42.654;23.316;2023-09-07T04:38:32;95090.44;;;21.08;58.48
29197;BME280;62796;42.654;23.316;2023-09-07T04:41:06;95093.38;;;21.28;57.67
29197;BME280;62796;42.654;23.316;2023-09-07T04:43:31;95098.78;;;21.13;58.95
29197;BME280;62796;42.654;23.316;2023-09-07T04:46:00;95114.56;;;20.90;59.46
29197;BME280;62796;42.654;23.316;2023-09-07T04:48:25;95103.63;;;20.86;59.59
29197;BME280;62796;42.654;23.316;2023-09-07T04:51:01;95115.53;;;20.92;58.95
29197;BME280;62796;42.654;23.316;2023-09-07T04:53:31;95109.03;;;20.97;59.01
29197;BME280;62796;42.654;23.316;2023-09-07T04:55:58;95108.63;;;20.93;59.22
29197;BME280;62796;42.654;23.316;2023-09-07T04:58:24;95120.31;;;20.97;59.23
29197;BME280;62796;42.654;23.316;2023-09-07T05:00:49;95116.19;;;20.98;59.14
29197;BME280;62796;42.654;23.316;2023-09-07T05:03:15;95122.19;;;21.08;58.42
29197;BME280;62796;42.654;23.316;2023-09-07T05:05:41;95117.81;;;21.07;58.69
29197;BME280;62796;42.654;23.316;2023-09-07T05:08:07;95107.09;;;21.06;58.03
29197;BME280;62796;42.654;23.316;2023-09-07T05:10:36;95120.13;;;21.09;57.86
29197;BME280;62796;42.654;23.316;2023-09-07T05:13:02;95112.75;;;21.19;57.38
29197;BME280;62796;42.654;23.316;2023-09-07T05:15:28;95109.81;;;21.50;55.90
29197;BME280;62796;42.654;23.316;2023-09-07T05:17:54;95108.72;;;21.53;55.44
29197;BME280;62796;42.654;23.316;2023-09-07T05:20:20;95110.16;;;21.34;56.29
29197;BME280;62796;42.654;23.316;2023-09-07T05:22:45;95119.59;;;21.23;56.89
29197;BME280;62796;42.654;23.316;2023-09-07T05:25:11;95120.03;;;21.27;56.79
29197;BME280;62796;42.654;23.316;2023-09-07T05:27:37;95124.25;;;21.34;56.36
29197;BME280;62796;42.654;23.316;2023-09-07T05:30:03;95123.94;;;21.37;56.64
29197;BME280;62796;42.654;23.316;2023-09-07T05:32:29;95126.94;;;21.39;56.36
29197;BME280;62796;42.654;23.316;2023-09-07T05:34:54;95131.38;;;21.48;56.25
29197;BME280;62796;42.654;23.316;2023-09-07T05:37:19;95120.44;;;21.44;56.42
29197;BME280;62796;42.654;23.316;2023-09-07T05:39:45;95126.31;;;21.46;56.99
29197;BME280;62796;42.654;23.316;2023-09-07T05:42:12;95129.97;;;21.41;57.76
29197;BME280;62796;42.654;23.316;2023-09-07T05:44:37;95119.47;;;21.42;58.04
29197;BME280;62796;42.654;23.316;2023-09-07T05:47:03;95119.91;;;21.46;57.77
29197;BME280;62796;42.654;23.316;2023-09-07T05:49:29;95120.00;;;21.53;57.37
29197;BME280;62796;42.654;23.316;2023-09-07T05:51:54;95118.69;;;21.68;56.56
29197;BME280;62796;42.654;23.316;2023-09-07T05:54:21;95128.69;;;21.56;56.95
29197;BME280;62796;42.654;23.316;2023-09-07T05:56:47;95128.16;;;21.44;57.51
29197;BME280;62796;42.654;23.316;2023-09-07T05:59:12;95127.28;;;21.36;57.95
29197;BME280;62796;42.654;23.316;2023-09-07T06:01:39;95119.16;;;21.45;57.70
29197;BME280;62796;42.654;23.316;2023-09-07T06:04:05;95118.19;;;21.56;57.21
29197;BME280;62796;42.654;23.316;2023-09-07T06:06:31;95120.94;;;21.69;56.81
29197;BME280;62796;42.654;23.316;2023-09-07T06:08:56;95124.16;;;21.86;56.35
29197;BME280;62796;42.654;23.316;2023-09-07T06:11:24;95130.09;;;22.09;55.48
29197;BME280;62796;42.654;23.316;2023-09-07T06:13:49;95127.38;;;22.37;55.02
29197;BME280;62796;42.654;23.316;2023-09-07T06:16:15;95132.66;;;22.75;53.79
29197;BME280;62796;42.654;23.316;2023-09-07T06:18:40;95120.28;;;23.06;52.96
29197;BME280;62796;42.654;23.316;2023-09-07T06:21:05;95127.88;;;23.39;51.38
29197;BME280;62796;42.654;23.316;2023-09-07T06:23:31;95126.13;;;23.64;50.33
29197;BME280;62796;42.654;23.316;2023-09-07T06:25:57;95123.72;;;24.12;49.02
29197;BME280;62796;42.654;23.316;2023-09-07T06:28:23;95133.06;;;24.50;48.29
29197;BME280;62796;42.654;23.316;2023-09-07T06:30:48;95144.38;;;24.50;47.88
29197;BME280;62796;42.654;23.316;2023-09-07T06:33:14;95125.28;;;24.43;47.98
29197;BME280;62796;42.654;23.316;2023-09-07T06:35:39;95130.63;;;24.69;45.53
29197;BME280;62796;42.654;23.316;2023-09-07T06:38:04;95138.97;;;24.83;45.89
29197;BME280;62796;42.654;23.316;2023-09-07T06:40:30;95147.28;;;25.11;45.17
29197;BME280;62796;42.654;23.316;2023-09-07T06:42:58;95140.44;;;25.37;44.20
29197;BME280;62796;42.654;23.316;2023-09-07T06:45:34;95140.84;;;25.48;44.05
29197;BME280;62796;42.654;23.316;2023-09-07T06:47:59;95133.81;;;25.64;43.54
29197;BME280;62796;42.654;23.316;2023-09-07T06:50:25;95147.59;;;25.75;42.27
29197;BME280;62796;42.654;23.316;2023-09-07T06:52:50;95148.38;;;25.61;41.94
29197;BME280;62796;42.654;23.316;2023-09-07T06:55:16;95136.47;;;25.62;42.66
29197;BME280;62796;42.654;23.316;2023-09-07T06:57:41;95144.53;;;25.89;41.11
29197;BME280;62796;42.654;23.316;2023-09-07T07:00:07;95140.28;;;26.05;41.40
29197;BME280;62796;42.654;23.316;2023-09-07T07:02:33;95140.66;;;26.09;40.85
29197;BME280;62796;42.654;23.316;2023-09-07T07:04:59;95123.94;;;26.28;40.51
29197;BME280;62796;42.654;23.316;2023-09-07T07:07:25;95122.72;;;26.46;40.36
29197;BME280;62796;42.654;23.316;2023-09-07T07:09:50;95132.84;;;26.57;39.39
29197;BME280;62796;42.654;23.316;2023-09-07T07:12:17;95146.38;;;26.73;39.39
29197;BME280;62796;42.654;23.316;2023-09-07T07:14:43;95136.53;;;26.74;38.84
29197;BME280;62796;42.654;23.316;2023-09-07T07:17:09;95139.91;;;26.80;38.93
29197;BME280;62796;42.654;23.316;2023-09-07T07:19:34;95142.28;;;26.91;38.74
29197;BME280;62796;42.654;23.316;2023-09-07T07:22:00;95149.50;;;26.60;39.32
29197;BME280;62796;42.654;23.316;2023-09-07T07:24:26;95141.06;;;26.45;39.25
29197;BME280;62796;42.654;23.316;2023-09-07T07:26:51;95147.72;;;26.40;39.67
29197;BME280;62796;42.654;23.316;2023-09-07T07:29:17;95167.06;;;26.34;39.83
29197;BME280;62796;42.654;23.316;2023-09-07T07:31:42;95163.72;;;26.13;40.64
29197;BME280;62796;42.654;23.316;2023-09-07T07:34:07;95155.81;;;26.04;40.98
29197;BME280;62796;42.654;23.316;2023-09-07T07:36:33;95163.25;;;25.92;41.41
29197;BME280;62796;42.654;23.316;2023-09-07T07:38:58;95166.13;;;25.76;41.19
29197;BME280;62796;42.654;23.316;2023-09-07T07:41:23;95171.09;;;25.53;41.81
29197;BME280;62796;42.654;23.316;2023-09-07T07:43:49;95170.72;;;25.49;42.69
29197;BME280;62796;42.654;23.316;2023-09-07T07:46:15;95157.84;;;25.48;42.48
29197;BME280;62796;42.654;23.316;2023-09-07T07:48:42;95179.41;;;25.51;42.84
29197;BME280;62796;42.654;23.316;2023-09-07T07:51:07;95169.75;;;25.54;42.50
29197;BME280;62796;42.654;23.316;2023-09-07T07:53:34;95167.28;;;25.51;42.51
29197;BME280;62796;42.654;23.316;2023-09-07T07:55:59;95172.03;;;25.48;42.87
29197;BME280;62796;42.654;23.316;2023-09-07T07:58:25;95175.63;;;25.56;43.11
29197;BME280;62796;42.654;23.316;2023-09-07T08:00:50;95168.81;;;25.59;42.81
29197;BME280;62796;42.654;23.316;2023-09-07T08:03:16;95168.03;;;25.66;42.23
29197;BME280;62796;42.654;23.316;2023-09-07T08:05:42;95170.28;;;25.75;41.99
29197;BME280;62796;42.654;23.316;2023-09-07T08:08:08;95170.28;;;25.75;41.65
29197;BME280;62796;42.654;23.316;2023-09-07T08:10:34;95173.53;;;25.64;41.97
29197;BME280;62796;42.654;23.316;2023-09-07T08:13:01;95167.88;;;25.34;42.16
29197;BME280;62796;42.654;23.316;2023-09-07T08:15:28;95171.84;;;25.31;42.41
29197;BME280;62796;42.654;23.316;2023-09-07T08:17:53;95163.91;;;25.37;41.96
29197;BME280;62796;42.654;23.316;2023-09-07T08:20:19;95163.91;;;25.45;42.34
29197;BME280;62796;42.654;23.316;2023-09-07T08:22:44;95167.25;;;25.66;42.26
29197;BME280;62796;42.654;23.316;2023-09-07T08:25:11;95170.97;;;25.99;41.40
29197;BME280;62796;42.654;23.316;2023-09-07T08:27:43;95161.09;;;26.15;40.86
29197;BME280;62796;42.654;23.316;2023-09-07T08:30:14;95153.94;;;26.46;39.74
29197;BME280;62796;42.654;23.316;2023-09-07T08:32:44;95140.84;;;26.51;39.42
29197;BME280;62796;42.654;23.316;2023-09-07T08:35:11;95151.44;;;26.82;38.47
29197;BME280;62796;42.654;23.316;2023-09-07T08:37:43;95162.47;;;27.03;38.06
29197;BME280;62796;42.654;23.316;2023-09-07T08:40:09;95148.78;;;27.09;37.18
29197;BME280;62796;42.654;23.316;2023-09-07T08:42:40;95144.69;;;27.03;37.75
29197;BME280;62796;42.654;23.316;2023-09-07T08:45:08;95152.06;;;27.06;37.56
29197;BME280;62796;42.654;23.316;2023-09-07T08:47:35;95147.41;;;27.18;37.29
29197;BME280;62796;42.654;23.316;2023-09-07T08:50:02;95149.53;;;27.10;37.56
29197;BME280;62796;42.654;23.316;2023-09-07T08:52:28;95134.88;;;27.21;37.13
29197;BME280;62796;42.654;23.316;2023-09-07T08:54:54;95139.47;;;27.33;36.49
29197;BME280;62796;42.654;23.316;2023-09-07T08:57:20;95140.88;;;27.50;35.68
29197;BME280;62796;42.654;23.316;2023-09-07T08:59:46;95139.81;;;27.62;35.60
29197;BME280;62796;42.654;23.316;2023-09-07T09:02:12;95138.38;;;27.71;35.53
29197;BME280;62796;42.654;23.316;2023-09-07T09:04:37;95137.31;;;27.83;34.96
29197;BME280;62796;42.654;23.316;2023-09-07T09:07:04;95144.56;;;27.94;35.05
29197;BME280;62796;42.654;23.316;2023-09-07T09:09:30;95138.81;;;28.01;34.54
29197;BME280;62796;42.654;23.316;2023-09-07T09:12:09;95142.00;;;28.06;32.97
29197;BME280;62796;42.654;23.316;2023-09-07T09:14:35;95133.78;;;27.75;32.96
29197;BME280;62796;42.654;23.316;2023-09-07T09:17:00;95129.94;;;27.80;33.03
29197;BME280;62796;42.654;23.316;2023-09-07T09:19:31;95132.28;;;27.74;33.71
29197;BME280;62796;42.654;23.316;2023-09-07T09:21:57;95125.56;;;27.62;33.86
29197;BME280;62796;42.654;23.316;2023-09-07T09:24:23;95127.41;;;27.67;33.87
29197;BME280;62796;42.654;23.316;2023-09-07T09:26:48;95130.66;;;27.81;33.42
29197;BME280;62796;42.654;23.316;2023-09-07T09:29:13;95133.59;;;27.90;33.08
29197;BME280;62796;42.654;23.316;2023-09-07T09:31:40;95122.22;;;27.73;32.96
29197;BME280;62796;42.654;23.316;2023-09-07T09:34:06;95129.91;;;27.63;32.72
29197;BME280;62796;42.654;23.316;2023-09-07T09:36:35;95125.22;;;27.58;32.98
29197;BME280;62796;42.654;23.316;2023-09-07T09:39:01;95122.88;;;27.64;32.71
29197;BME280;62796;42.654;23.316;2023-09-07T09:41:30;95123.47;;;27.45;33.16
29197;BME280;62796;42.654;23.316;2023-09-07T09:43:57;95121.97;;;27.62;33.17
29197;BME280;62796;42.654;23.316;2023-09-07T09:46:24;95113.69;;;27.56;33.12
29197;BME280;62796;42.654;23.316;2023-09-07T09:48:50;95110.34;;;27.67;33.16
29197;BME280;62796;42.654;23.316;2023-09-07T09:51:17;95115.50;;;27.78;33.15
29197;BME280;62796;42.654;23.316;2023-09-07T09:53:44;95115.75;;;27.90;33.09
29197;BME280;62796;42.654;23.316;2023-09-07T09:56:10;95110.81;;;27.90;32.85
29197;BME280;62796;42.654;23.316;2023-09-07T09:58:37;95115.34;;;27.93;32.38
29197;BME280;62796;42.654;23.316;2023-09-07T10:01:03;95108.88;;;27.93;31.08
29197;BME280;62796;42.654;23.316;2023-09-07T10:03:45;95102.97;;;27.81;31.00
29197;BME280;62796;42.654;23.316;2023-09-07T10:06:17;95106.81;;;27.76;31.69
29197;BME280;62796;42.654;23.316;2023-09-07T10:09:02;95109.50;;;27.74;32.19
29197;BME280;62796;42.654;23.316;2023-09-07T10:11:39;95101.28;;;27.61;32.42
29197;BME280;62796;42.654;23.316;2023-09-07T10:14:06;95103.63;;;27.55;32.82
29197;BME280;62796;42.654;23.316;2023-09-07T10:16:51;95104.47;;;27.48;32.31
29197;BME280;62796;42.654;23.316;2023-09-07T10:19:24;95101.94;;;27.35;32.57
29197;BME280;62796;42.654;23.316;2023-09-07T10:21:52;95094.81;;;27.26;32.89
29197;BME280;62796;42.654;23.316;2023-09-07T10:24:32;95098.56;;;27.29;33.30
29197;BME280;62796;42.654;23.316;2023-09-07T10:27:06;95102.94;;;27.30;33.61
29197;BME280;62796;42.654;23.316;2023-09-07T10:29:46;95099.25;;;27.37;33.11
29197;BME280;62796;42.654;23.316;2023-09-07T10:32:15;95087.72;;;27.35;33.11
29197;BME280;62796;42.654;23.316;2023-09-07T10:34:42;95086.97;;;27.52;32.85
29197;BME280;62796;42.654;23.316;2023-09-07T10:37:11;95094.25;;;27.45;32.84
29197;BME280;62796;42.654;23.316;2023-09-07T10:39:39;95086.06;;;27.49;32.77
29197;BME280;62796;42.654;23.316;2023-09-07T10:42:05;95091.09;;;27.58;32.03
29197;BME280;62796;42.654;23.316;2023-09-07T10:44:30;95085.31;;;27.66;32.54
29197;BME280;62796;42.654;23.316;2023-09-07T10:46:59;95092.44;;;27.74;32.44
29197;BME280;62796;42.654;23.316;2023-09-07T10:49:25;95088.47;;;27.87;31.90
29197;BME280;62796;42.654;23.316;2023-09-07T10:51:51;95075.53;;;27.59;32.70
29197;BME280;62796;42.654;23.316;2023-09-07T10:54:17;95084.13;;;27.69;31.96
29197;BME280;62796;42.654;23.316;2023-09-07T10:56:45;95077.03;;;27.60;32.01
29197;BME280;62796;42.654;23.316;2023-09-07T10:59:14;95074.50;;;27.64;32.25
29197;BME280;62796;42.654;23.316;2023-09-07T11:01:40;95072.00;;;27.68;32.00
29197;BME280;62796;42.654;23.316;2023-09-07T11:04:06;95083.06;;;27.64;32.38
29197;BME280;62796;42.654;23.316;2023-09-07T11:06:33;95085.41;;;27.58;32.36
29197;BME280;62796;42.654;23.316;2023-09-07T11:09:00;95078.69;;;27.46;32.13
29197;BME280;62796;42.654;23.316;2023-09-07T11:11:26;95082.59;;;27.33;32.22
29197;BME280;62796;42.654;23.316;2023-09-07T11:13:52;95073.78;;;27.22;32.64
29197;BME280;62796;42.654;23.316;2023-09-07T11:16:17;95075.88;;;26.79;33.30
29197;BME280;62796;42.654;23.316;2023-09-07T11:18:45;95071.97;;;26.67;33.42
29197;BME280;62796;42.654;23.316;2023-09-07T11:21:11;95076.13;;;26.42;33.83
29197;BME280;62796;42.654;23.316;2023-09-07T11:23:37;95055.06;;;26.20;34.40
29197;BME280;62796;42.654;23.316;2023-09-07T11:26:06;95080.97;;;26.24;35.05
29197;BME280;62796;42.654;23.316;2023-09-07T11:28:32;95078.56;;;26.13;34.95
29197;BME280;62796;42.654;23.316;2023-09-07T11:30:58;95075.53;;;26.11;34.98
29197;BME280;62796;42.654;23.316;2023-09-07T11:33:24;95073.13;;;26.00;35.28
29197;BME280;62796;42.654;23.316;2023-09-07T11:35:50;95068.78;;;25.99;35.38
29197;BME280;62796;42.654;23.316;2023-09-07T11:38:17;95060.53;;;25.85;35.80
29197;BME280;62796;42.654;23.316;2023-09-07T11:40:43;95071.22;;;25.62;36.52
29197;BME280;62796;42.654;23.316;2023-09-07T11:43:11;95063.59;;;25.72;36.15
29197;BME280;62796;42.654;23.316;2023-09-07T11:45:38;95073.81;;;25.75;36.65
29197;BME280;62796;42.654;23.316;2023-09-07T11:48:03;95068.03;;;25.58;36.48
29197;BME280;62796;42.654;23.316;2023-09-07T11:50:29;95070.31;;;25.37;37.29
29197;BME280;62796;42.654;23.316;2023-09-07T11:52:55;95065.06;;;25.26;37.67
29197;BME280;62796;42.654;23.316;2023-09-07T11:55:21;95053.56;;;25.16;38.11
29197;BME280;62796;42.654;23.316;2023-09-07T11:57:47;95062.22;;;25.26;37.80
29197;BME280;62796;42.654;23.316;2023-09-07T12:00:12;95061.88;;;25.14;37.66
29197;BME280;62796;42.654;23.316;2023-09-07T12:02:40;95061.91;;;24.99;38.26
29197;BME280;62796;42.654;23.316;2023-09-07T12:05:08;95056.59;;;25.03;38.28
29197;BME280;62796;42.654;23.316;2023-09-07T12:07:39;95055.47;;;24.99;38.35
29197;BME280;62796;42.654;23.316;2023-09-07T12:10:05;95061.53;;;24.95;38.42
29197;BME280;62796;42.654;23.316;2023-09-07T12:12:31;95062.69;;;24.85;38.26
29197;BME280;62796;42.654;23.316;2023-09-07T12:14:56;95042.63;;;24.75;38.16
29197;BME280;62796;42.654;23.316;2023-09-07T12:17:23;95061.88;;;24.69;38.59
29197;BME280;62796;42.654;23.316;2023-09-07T12:19:50;95055.88;;;24.88;38.04
29197;BME280;62796;42.654;23.316;2023-09-07T12:22:15;95053.97;;;24.98;37.99
29197;BME280;62796;42.654;23.316;2023-09-07T12:24:41;95057.16;;;25.02;38.31
29197;BME280;62796;42.654;23.316;2023-09-07T12:27:06;95050.91;;;25.11;37.77
29197;BME280;62796;42.654;23.316;2023-09-07T12:29:31;95051.84;;;25.13;37.61
29197;BME280;62796;42.654;23.316;2023-09-07T12:31:57;95053.16;;;25.20;37.59
29197;BME280;62796;42.654;23.316;2023-09-07T12:34:23;95047.50;;;25.20;37.86
29197;BME280;62796;42.654;23.316;2023-09-07T12:36:48;95052.75;;;25.31;37.23
29197;BME280;62796;42.654;23.316;2023-09-07T12:39:14;95052.38;;;25.27;36.89
29197;BME280;62796;42.654;23.316;2023-09-07T12:41:40;95055.41;;;25.29;36.96
29197;BME280;62796;42.654;23.316;2023-09-07T12:44:05;95055.41;;;25.21;37.56
29197;BME280;62796;42.654;23.316;2023-09-07T12:46:32;95052.06;;;25.08;37.55